Historyczne dane pomiarowe

Dodano dane terminowe – wersja testowa.

Dane z okresu 1951-2019

Wersja bazy: 1.34 [2019-03-16, lista zmian], aktualizacja planowana na 2019-04-15

Dane meteo z obszaru Polski uzyskane na podstawie danych udostępnionych przez Instytut Meteorologii i Gospodarki Wodnej – Państwowy Instytut Badawczy.

 

Wybierz Datę:    

       

TemperaturaWilgotnośćWiatrCiśnienieOpadyŚniegCzas trwania zjawisk
 Stacja t tx tn tng RH VA  wxwx mslp ppp RRR   cm mm wxwxwxwxwxwxwx
1994-08-14 9.3 11.4 5.8 4.7 70.5- 4.7 3.3---- 0.0------------
1994-08-13 11.6 15.0 9.7 9.5 86.5- 8.0 3.3---- 0.0------------
1994-08-12 12.1 15.4 8.3 6.4 94.5- 8.0 1.7---- 5.8------------
1994-08-11 13.6 20.7 11.2 6.4 95.3- 8.0 3.3---- 12.8------------
1994-08-10 15.5 24.2 4.6 3.1 76.3- 0.0 0.3---- 5.2------------
1994-08-09 15.1 19.9 12.7 8.5 89.8- 6.0 1.0---- 5.5------------
1994-08-08 15.8 19.5 13.2 12.5 93.8- 8.0 1.7---- 8.4------------
1994-08-07 17.8 22.5 12.4 7.9 90.3- 6.0 1.0---- 21.8------------
1994-08-06 18.7 24.2 9.4 4.2 71.5- 2.7 1.7---- 0.0------------
1994-08-05 18.5 27.9 5.0 0.2 69.8- 0.0 0.7---- 0.0------------
1994-08-04 17.0 24.9 5.3 1.6 68.0- 0.0 1.0---- 0.0------------
1994-08-03 18.8 24.0 13.3 8.9 79.0- 5.0 0.7---- 0.0------------
1994-08-02 20.5 24.5 14.1 7.9 70.3- 0.7 0.7---- 0.0------------
1994-08-01 24.3 30.1 17.4 16.4 52.8- 0.0 3.7---- 0.0------------
1994-07-31 22.4 30.0 12.3 6.9 52.0- 0.0 0.0---- 0.0------------
1994-07-30 21.3 29.7 10.1 6.5 60.3- 0.0 2.3---- 0.0------------
1994-07-29 18.2 28.8 9.8 5.7 72.8- 2.7 0.0---- 0.0------------
1994-07-28 18.6 28.1 9.8 5.5 68.5- 0.0 0.7---- 0.0------------
1994-07-27 19.9 26.1 14.7 10.8 73.8- 8.0 0.0---- 0.2------------
1994-07-26 20.2 27.6 10.2 6.0 61.8- 1.3 0.7---- 0.0------------
1994-07-25 17.9 27.1 9.2 5.8 67.8- 0.0 1.0---- 0.0------------
1994-07-24 18.6 24.9 6.1 1.2 56.0- 1.0 1.3---- 0.0------------
1994-07-23 18.2 24.7 5.5 0.4 54.8- 1.0 1.0---- 0.0------------
1994-07-22 16.5 24.5 4.2 -0.3 65.5- 0.0 1.0---- 0.0------------
1994-07-21 15.0 22.0 2.2 -2.3 63.3- 0.0 2.3---- 0.0------------
1994-07-20 14.1 19.1 8.2 5.0 63.8- 0.0 1.3---- 0.0------------
1994-07-19 12.7 16.6 10.0 9.5 90.0- 6.0 1.7---- 0.8------------
1994-07-18 14.7 21.0 7.8 5.4 91.0- 1.7 0.0---- 0.5------------
1994-07-17 16.1 22.2 10.2 6.7 89.8- 4.7 0.7---- 13.0------------
1994-07-16 18.6 21.6 13.1 9.9 77.8- 3.0 1.3---- 0.0------------
1994-07-15 16.1 24.5 6.6 6.5 87.0- 3.0 0.3---- 4.5------------
1994-07-14 18.4 25.5 6.0 4.0 66.5- 0.3 0.0---- 0.0------------
1994-07-13 16.4 23.6 7.8 3.1 69.8- 0.3 1.0---- 0.0------------
1994-07-12 17.3 21.5 8.9 4.0 78.5- 1.7 1.3---- 0.0------------
1994-07-11 17.1 21.0 8.7 4.4 66.5- 3.7 2.0---- 0.0------------
1994-07-10 13.4 18.0 9.3 8.9 86.3- 4.3 3.0---- 0.6------------
1994-07-09 11.6 14.8 9.5 8.4 86.8- 8.0 2.7---- 19.1------------
1994-07-08 9.6 12.2 7.3 5.4 87.0- 8.0 2.3---- 1.0------------
1994-07-07 12.3 18.6 6.7 5.4 89.8- 5.7 0.7---- 13.3------------
1994-07-06 16.4 20.7 11.7 10.3 76.5- 3.3 2.0---- 0.0------------
1994-07-05 17.9 22.8 12.3 2.9 77.5- 1.7 1.0---- 2.0------------
1994-07-04 17.9 26.8 4.4 2.5 66.8- 1.0 0.3---- 0.0------------
1994-07-03 17.9 24.7 4.4 0.2 56.5- 0.0 1.0---- 0.0------------
1994-07-02 13.7 22.0 2.8 -1.6 67.3- 0.0 1.0---- 0.0------------
1994-07-01 12.2 18.5 2.0 -0.5 71.5- 0.7 1.3---- 0.0------------
1994-06-30 13.7 24.5 7.2 2.6 92.3- 5.3 1.0---- 1.2------------
1994-06-29 22.4 27.6 15.8 11.5 65.0- 3.7 0.7---- 1.2------------
1994-06-28 20.9 26.7 12.9 9.7 77.3- 8.0 1.0---- 0.0------------
1994-06-27 20.5 26.8 9.6 5.6 70.0- 3.3 1.0---- 0.0------------
1994-06-26 20.3 25.3 14.3 11.9 62.8- 1.3 3.0---- 0.0------------
1994-06-25 13.6 22.0 -1.1 -5.1 50.0- 0.0 1.7---- 0.0------------
1994-06-24 10.6 16.4 0.6 -4.2 57.3- 1.3 1.0---- 0.0------------
1994-06-23 11.1 17.2 8.3 6.4 69.0- 2.7 2.7---- 0.0------------
1994-06-22 15.7 20.4 9.7 5.5 78.0- 4.7 2.0---- 0.0------------
1994-06-21 12.3 18.4 2.5 -0.6 68.0- 0.7 1.0---- 0.0------------
1994-06-20 11.4 21.0 8.7 3.9 83.5- 5.3 1.0---- 0.0------------
1994-06-19 15.4 21.0 9.8 8.4 64.0- 1.3 3.0---- 0.0------------
1994-06-18 8.6 14.5 -2.4 -4.9 75.5- 6.7 4.7---- 2.6------------
1994-06-17 5.0 9.9 2.3 1.2 83.0- 2.7 1.3---- 0.0------------
1994-06-16 6.5 10.4 2.2 -0.5 93.0- 8.0 1.3---- 6.4------------
240.4 ms

 

Źródłem pochodzenia danych jest Instytut Meteorologii i Gospodarki Wodnej – Państwowy Instytut Badawczy. Dane Instytutu Meteorologii i Gospodarki Wodnej – Państwowego Instytutu Badawczego zostały przetworzone.

Dane źródłowe można odnaleźć na stronie https://dane.imgw.pl